Time;durP1;ratioP1;P1;durP2;ratioP2;P2;SDS_P1;SDS_P2;PMS_P1;PMS_P2;Temp;Humidity;BMP_temperature;BMP_pressure;BME280_temperature;BME280_humidity;BME280_pressure;Samples;Min_cycle;Max_cycle;Signal;HPM_P1;HPM_P2
2024/03/18 00:02:27;;;;;;;16.27;2.92;;;;;;;;;;5055212;28;20040;-77
2024/03/18 00:04:56;;;;;;;17.88;3.28;;;;;;;;;;5055537;28;20119;-76
2024/03/18 00:07:24;;;;;;;16.58;3.60;;;;;;;;;;5055027;28;20089;-77
2024/03/18 00:09:51;;;;;;;19.73;3.38;;;;;;;;;;5054811;28;20041;-77
2024/03/18 00:12:17;;;;;;;17.92;3.50;;;;;;;;;;5055101;28;20036;-78
2024/03/18 00:14:43;;;;;;;23.55;3.78;;;;;;;;;;5055511;28;20626;-77
2024/03/18 00:17:10;;;;;;;18.67;3.08;;;;;;;;;;5054929;28;20041;-77
2024/03/18 00:19:36;;;;;;;21.50;3.70;;;;;;;;;;5054956;28;20090;-77
2024/03/18 00:22:02;;;;;;;19.02;3.47;;;;;;;;;;5055593;28;20047;-77
2024/03/18 00:24:27;;;;;;;24.20;4.05;;;;;;;;;;5054675;28;20418;-76
2024/03/18 00:26:53;;;;;;;23.38;4.03;;;;;;;;;;5055178;28;20089;-77
2024/03/18 00:29:19;;;;;;;23.13;3.13;;;;;;;;;;5054969;28;20040;-77
2024/03/18 00:31:46;;;;;;;22.67;3.42;;;;;;;;;;5038199;28;20037;-77
2024/03/18 00:34:13;;;;;;;25.42;3.47;;;;;;;;;;5054759;28;20051;-76
2024/03/18 00:36:39;;;;;;;25.45;3.75;;;;;;;;;;5055207;28;20040;-77
2024/03/18 00:39:08;;;;;;;25.08;4.47;;;;;;;;;;5054598;28;20045;-77
2024/03/18 00:41:46;;;;;;;;;;;;;;;;;;5055450;28;20037;-77
2024/03/18 00:44:16;;;;;;;29.30;3.73;;;;;;;;;;5054557;28;20262;-77
2024/03/18 00:46:46;;;;;;;34.47;4.63;;;;;;;;;;5055148;28;20421;-77
2024/03/18 00:49:13;;;;;;;20.17;3.65;;;;;;;;;;5054471;28;20408;-77
2024/03/18 00:51:40;;;;;;;19.25;4.70;;;;;;;;;;5055091;28;20047;-76
2024/03/18 00:54:07;;;;;;;29.05;4.47;;;;;;;;;;5054587;28;20044;-77
2024/03/18 00:56:33;;;;;;;28.98;4.93;;;;;;;;;;5055059;28;20040;-77
2024/03/18 00:59:03;;;;;;;21.65;4.28;;;;;;;;;;5054926;28;20040;-76
2024/03/18 01:01:29;;;;;;;28.10;4.68;;;;;;;;;;5054465;28;20040;-77
2024/03/18 01:03:55;;;;;;;33.50;4.93;;;;;;;;;;5054966;28;20064;-76
2024/03/18 01:06:21;;;;;;;17.67;3.92;;;;;;;;;;5054328;28;20043;-77
2024/03/18 01:08:47;;;;;;;24.73;4.00;;;;;;;;;;5054745;28;20033;-77
2024/03/18 01:11:13;;;;;;;20.90;4.35;;;;;;;;;;5054272;28;20044;-77
2024/03/18 01:13:40;;;;;;;33.05;5.55;;;;;;;;;;5054897;28;20120;-77
2024/03/18 01:16:07;;;;;;;26.92;4.80;;;;;;;;;;5054172;28;20383;-77
2024/03/18 01:18:33;;;;;;;23.38;5.50;;;;;;;;;;5054411;28;20440;-77
2024/03/18 01:20:59;;;;;;;22.83;5.40;;;;;;;;;;5041284;28;20047;-77
2024/03/18 01:23:25;;;;;;;21.70;4.90;;;;;;;;;;5058205;28;20379;-77
2024/03/18 01:25:51;;;;;;;24.35;5.63;;;;;;;;;;5058383;28;20505;-76
2024/03/18 01:28:17;;;;;;;25.77;5.68;;;;;;;;;;5058032;28;20471;-77
2024/03/18 01:30:43;;;;;;;32.58;5.95;;;;;;;;;;5058545;28;20090;-77
2024/03/18 01:33:09;;;;;;;29.63;6.30;;;;;;;;;;5057973;28;20036;-77
2024/03/18 01:35:35;;;;;;;27.38;6.15;;;;;;;;;;5058324;28;20478;-77
2024/03/18 01:38:01;;;;;;;25.08;6.35;;;;;;;;;;5058453;28;20524;-77
2024/03/18 01:40:27;;;;;;;26.42;5.82;;;;;;;;;;5057647;28;20590;-77
2024/03/18 01:42:53;;;;;;;29.63;5.72;;;;;;;;;;5058384;28;20394;-77
2024/03/18 01:45:23;;;;;;;30.25;5.78;;;;;;;;;;5057756;28;20085;-77
2024/03/18 01:47:52;;;;;;;37.80;6.90;;;;;;;;;;5058016;28;20040;-77
2024/03/18 01:50:19;;;;;;;38.03;5.93;;;;;;;;;;5057610;28;20372;-77
2024/03/18 01:52:48;;;;;;;34.45;5.60;;;;;;;;;;5058098;28;20044;-78
2024/03/18 01:55:15;;;;;;;26.45;6.97;;;;;;;;;;5057690;28;20437;-77
2024/03/18 01:57:41;;;;;;;29.67;5.07;;;;;;;;;;5057934;28;20046;-77
2024/03/18 02:00:41;;;;;;;30.40;5.32;;;;;;;;;;5057524;28;20065;-77
2024/03/18 02:03:03;;;;;;;27.65;5.65;;;;;;;;;;5054990;28;20044;-77
2024/03/18 02:05:31;;;;;;;29.42;5.30;;;;;;;;;;5057564;28;20037;-77
2024/03/18 02:07:57;;;;;;;26.88;5.53;;;;;;;;;;5057955;28;20045;-76
2024/03/18 02:10:23;;;;;;;30.80;5.43;;;;;;;;;;5057216;28;20045;-77
2024/03/18 02:12:49;;;;;;;25.88;5.88;;;;;;;;;;5057750;28;20036;-77
2024/03/18 02:15:15;;;;;;;24.23;5.30;;;;;;;;;;5057223;28;20115;-78
2024/03/18 02:17:40;;;;;;;27.58;5.43;;;;;;;;;;5057496;28;20515;-77
2024/03/18 02:20:09;;;;;;;21.17;4.35;;;;;;;;;;5057047;28;20044;-77
2024/03/18 02:22:36;;;;;;;19.27;3.97;;;;;;;;;;5057814;28;20039;-77
2024/03/18 02:25:04;;;;;;;22.02;4.40;;;;;;;;;;5057384;28;20066;-77
2024/03/18 02:27:29;;;;;;;26.45;4.00;;;;;;;;;;5057037;28;20056;-78
2024/03/18 02:29:58;;;;;;;17.65;3.78;;;;;;;;;;5057613;28;20055;-77
2024/03/18 02:32:25;;;;;;;23.13;3.80;;;;;;;;;;5056097;28;20063;-77
2024/03/18 02:34:51;;;;;;;19.08;3.08;;;;;;;;;;5056613;28;20094;-77
2024/03/18 02:37:16;;;;;;;16.27;3.63;;;;;;;;;;5056782;28;20040;-78
2024/03/18 02:39:43;;;;;;;18.20;3.42;;;;;;;;;;5057153;28;20054;-77
2024/03/18 02:42:09;;;;;;;26.35;3.53;;;;;;;;;;5056597;28;20128;-77
2024/03/18 02:44:36;;;;;;;17.92;2.85;;;;;;;;;;5057269;28;20041;-78
2024/03/18 02:47:02;;;;;;;16.33;3.17;;;;;;;;;;5056976;28;20048;-77
2024/03/18 02:49:28;;;;;;;15.90;2.55;;;;;;;;;;5056759;28;20040;-77
2024/03/18 02:51:54;;;;;;;16.25;2.50;;;;;;;;;;5023864;28;20383;-77
2024/03/18 02:54:19;;;;;;;14.48;2.50;;;;;;;;;;5056458;28;20067;-77
2024/03/18 02:56:45;;;;;;;15.52;1.90;;;;;;;;;;5056918;28;20045;-77
2024/03/18 02:59:11;;;;;;;17.10;2.25;;;;;;;;;;5056293;28;20036;-77
2024/03/18 03:01:37;;;;;;;13.20;2.05;;;;;;;;;;5056594;28;20047;-78
2024/03/18 03:04:03;;;;;;;12.25;2.03;;;;;;;;;;5056903;28;20040;-77
2024/03/18 03:06:29;;;;;;;9.82;1.58;;;;;;;;;;5056439;28;20090;-77
2024/03/18 03:08:57;;;;;;;9.82;2.30;;;;;;;;;;5056622;28;20134;-77
2024/03/18 03:11:23;;;;;;;12.73;2.20;;;;;;;;;;5056343;28;20048;-77
2024/03/18 03:13:48;;;;;;;11.57;2.42;;;;;;;;;;5056457;28;20290;-77
2024/03/18 03:16:14;;;;;;;9.15;1.92;;;;;;;;;;5056200;28;20059;-77
2024/03/18 03:18:40;;;;;;;9.57;2.08;;;;;;;;;;5053152;28;20171;-77
2024/03/18 03:21:06;;;;;;;9.13;1.88;;;;;;;;;;5052589;28;20040;-78
2024/03/18 03:23:39;;;;;;;11.68;2.00;;;;;;;;;;5052877;28;20047;-77
2024/03/18 03:26:05;;;;;;;11.23;1.88;;;;;;;;;;5052652;28;20037;-77
2024/03/18 03:28:31;;;;;;;12.88;2.03;;;;;;;;;;5052689;28;20502;-77
2024/03/18 03:31:05;;;;;;;15.98;3.03;;;;;;;;;;5052878;28;20064;-77
2024/03/18 03:33:34;;;;;;;16.77;2.78;;;;;;;;;;5052610;28;20041;-77
2024/03/18 03:36:04;;;;;;;12.07;2.60;;;;;;;;;;5036640;28;20036;-77
2024/03/18 03:38:30;;;;;;;14.65;3.17;;;;;;;;;;5052544;28;20093;-78
2024/03/18 03:40:56;;;;;;;16.83;3.20;;;;;;;;;;5052440;28;20040;-77
2024/03/18 03:43:22;;;;;;;16.52;3.25;;;;;;;;;;5052385;28;20110;-78
2024/03/18 03:45:55;;;;;;;16.48;2.40;;;;;;;;;;5052598;28;20536;-77
2024/03/18 03:48:25;;;;;;;17.10;2.80;;;;;;;;;;5052328;28;20491;-77
2024/03/18 03:50:52;;;;;;;15.38;3.20;;;;;;;;;;5052441;28;20041;-77
2024/03/18 03:53:18;;;;;;;23.02;3.83;;;;;;;;;;5052097;28;20037;-77
2024/03/18 03:55:44;;;;;;;20.05;3.53;;;;;;;;;;5052229;28;20045;-76
2024/03/18 03:58:10;;;;;;;21.55;2.92;;;;;;;;;;5052071;28;20047;-77
2024/03/18 04:00:36;;;;;;;17.25;3.33;;;;;;;;;;5052504;28;20037;-77
2024/03/18 04:03:02;;;;;;;22.48;3.58;;;;;;;;;;5052372;28;20127;-76
2024/03/18 04:05:28;;;;;;;20.40;3.97;;;;;;;;;;5052048;28;20041;-76
2024/03/18 04:07:54;;;;;;;24.13;3.40;;;;;;;;;;5052115;28;20052;-77
2024/03/18 04:10:19;;;;;;;12.52;3.22;;;;;;;;;;5051789;28;20045;-77
2024/03/18 04:12:45;;;;;;;23.58;3.20;;;;;;;;;;5052473;28;20502;-77
2024/03/18 04:15:11;;;;;;;18.02;4.10;;;;;;;;;;5051594;28;20146;-76
2024/03/18 04:17:37;;;;;;;19.13;2.72;;;;;;;;;;5052041;28;20079;-77
2024/03/18 04:20:18;;;;;;;20.13;3.42;;;;;;;;;;5051951;28;20491;-76
2024/03/18 04:22:52;;;;;;;20.80;3.33;;;;;;;;;;5051895;28;20041;-77
2024/03/18 04:25:20;;;;;;;19.88;2.92;;;;;;;;;;5034991;28;20040;-77
2024/03/18 04:27:47;;;;;;;20.50;2.80;;;;;;;;;;5051815;28;20033;-77
2024/03/18 04:30:18;;;;;;;17.83;3.28;;;;;;;;;;5051508;28;20548;-77
2024/03/18 04:32:45;;;;;;;20.38;2.83;;;;;;;;;;5051743;28;20048;-77
2024/03/18 04:35:11;;;;;;;22.80;3.15;;;;;;;;;;5051208;28;20379;-77
2024/03/18 04:37:46;;;;;;;20.08;3.25;;;;;;;;;;5051746;28;20036;-77
2024/03/18 04:40:16;;;;;;;23.58;3.03;;;;;;;;;;5051468;28;20040;-77
2024/03/18 04:42:43;;;;;;;13.65;2.63;;;;;;;;;;5051730;28;20049;-77
2024/03/18 04:45:10;;;;;;;20.25;2.63;;;;;;;;;;5051291;28;20044;-77
2024/03/18 04:47:39;;;;;;;21.23;3.55;;;;;;;;;;5051513;28;20052;-76
2024/03/18 04:50:12;;;;;;;22.25;2.83;;;;;;;;;;5051409;28;20039;-76
2024/03/18 04:52:39;;;;;;;21.95;3.00;;;;;;;;;;5051983;28;20043;-77
2024/03/18 04:55:06;;;;;;;21.05;2.40;;;;;;;;;;5055305;28;20033;-77
2024/03/18 04:57:36;;;;;;;13.32;2.30;;;;;;;;;;5057891;28;20464;-77
2024/03/18 05:00:11;;;;;;;17.05;3.25;;;;;;;;;;5058150;28;20106;-76
2024/03/18 05:02:44;;;;;;;28.00;4.13;;;;;;;;;;5041439;28;20430;-77
2024/03/18 05:05:12;;;;;;;16.95;3.35;;;;;;;;;;5057781;28;20072;-77
2024/03/18 05:07:39;;;;;;;21.52;3.60;;;;;;;;;;5057943;28;20041;-77
2024/03/18 05:10:06;;;;;;;17.05;3.35;;;;;;;;;;5057720;28;20044;-77
2024/03/18 05:12:32;;;;;;;20.92;3.05;;;;;;;;;;5058163;28;20041;-77
2024/03/18 05:14:58;;;;;;;21.23;3.55;;;;;;;;;;5058239;28;20429;-77
2024/03/18 05:17:24;;;;;;;16.90;2.80;;;;;;;;;;5057657;28;20049;-77
2024/03/18 05:19:51;;;;;;;14.18;2.45;;;;;;;;;;5057832;28;20398;-77
2024/03/18 05:22:17;;;;;;;19.38;3.33;;;;;;;;;;5057628;28;20045;-77
2024/03/18 05:24:43;;;;;;;21.45;3.97;;;;;;;;;;5057971;28;20036;-76
2024/03/18 05:27:13;;;;;;;26.52;4.75;;;;;;;;;;5057556;28;20371;-77
2024/03/18 05:29:40;;;;;;;23.98;3.70;;;;;;;;;;5058078;28;20041;-77
2024/03/18 05:32:08;;;;;;;25.05;4.03;;;;;;;;;;5057571;28;20051;-77
2024/03/18 05:34:34;;;;;;;25.08;4.28;;;;;;;;;;5057670;28;20523;-78
2024/03/18 05:37:01;;;;;;;27.08;3.53;;;;;;;;;;5058048;28;20421;-77
2024/03/18 05:39:27;;;;;;;25.95;4.03;;;;;;;;;;5057520;28;20045;-77
2024/03/18 05:41:54;;;;;;;24.17;3.70;;;;;;;;;;5057865;28;20109;-77
2024/03/18 05:44:19;;;;;;;23.83;3.35;;;;;;;;;;5024343;28;20475;-77
2024/03/18 05:46:45;;;;;;;26.27;3.25;;;;;;;;;;5057872;28;20136;-79
2024/03/18 05:49:11;;;;;;;25.50;3.92;;;;;;;;;;5057426;28;20124;-77
2024/03/18 05:51:37;;;;;;;20.67;3.50;;;;;;;;;;5057874;28;20117;-77
2024/03/18 05:54:05;;;;;;;30.67;3.92;;;;;;;;;;5057706;28;20041;-76
2024/03/18 05:56:31;;;;;;;31.17;3.65;;;;;;;;;;5057439;28;20043;-76
2024/03/18 05:58:57;;;;;;;29.05;3.72;;;;;;;;;;5040776;28;20044;-76
2024/03/18 06:01:23;;;;;;;21.45;3.45;;;;;;;;;;5057084;28;20041;-76
2024/03/18 06:03:49;;;;;;;26.35;3.38;;;;;;;;;;5057578;28;20044;-77
2024/03/18 06:06:14;;;;;;;26.00;3.42;;;;;;;;;;5054351;28;20087;-78
2024/03/18 06:08:40;;;;;;;19.25;3.67;;;;;;;;;;5052679;28;20044;-78
2024/03/18 06:11:06;;;;;;;27.95;2.88;;;;;;;;;;5036074;28;20033;-79
2024/03/18 06:13:32;;;;;;;24.27;3.83;;;;;;;;;;5053528;28;20505;-78
2024/03/18 06:16:00;;;;;;;21.42;2.95;;;;;;;;;;5074362;28;20051;-78
2024/03/18 06:18:26;;;;;;;21.42;2.60;;;;;;;;;;5073757;28;20067;-78
2024/03/18 06:20:53;;;;;;;17.45;3.42;;;;;;;;;;5074208;28;20211;-78
2024/03/18 06:23:22;;;;;;;22.85;2.28;;;;;;;;;;5074649;28;20051;-78
2024/03/18 06:25:57;;;;;;;16.15;2.78;;;;;;;;;;5064772;28;20047;-78
2024/03/18 06:28:24;;;;;;;21.02;2.95;;;;;;;;;;5033764;28;20114;-78
2024/03/18 06:30:51;;;;;;;13.50;2.20;;;;;;;;;;5034242;28;20082;-78
2024/03/18 06:33:20;;;;;;;23.05;3.28;;;;;;;;;;5033582;28;20469;-78
2024/03/18 06:35:45;;;;;;;;;;;;;;;;;;5049057;28;20033;-78
2024/03/18 06:38:12;;;;;;;16.13;3.00;;;;;;;;;;5037069;28;19920;-79
2024/03/18 06:40:41;;;;;;;19.17;3.30;;;;;;;;;;5053724;28;20049;-78
2024/03/18 06:43:07;;;;;;;21.73;2.70;;;;;;;;;;5053382;28;20055;-82
2024/03/18 06:45:36;;;;;;;13.48;2.55;;;;;;;;;;5053638;28;20474;-78
2024/03/18 06:48:03;;;;;;;20.30;3.20;;;;;;;;;;5053659;28;20098;-78
2024/03/18 06:50:35;;;;;;;19.30;3.50;;;;;;;;;;5053555;28;20037;-77
2024/03/18 06:53:02;;;;;;;23.60;2.80;;;;;;;;;;5053807;28;20111;-78
2024/03/18 06:55:31;;;;;;;21.55;3.85;;;;;;;;;;5053076;28;20045;-78
2024/03/18 06:57:58;;;;;;;20.58;3.60;;;;;;;;;;5053684;28;20132;-78
2024/03/18 07:00:24;;;;;;;22.50;3.30;;;;;;;;;;5052642;28;20053;-78
2024/03/18 07:02:50;;;;;;;19.33;3.55;;;;;;;;;;5053474;28;20049;-78
2024/03/18 07:05:20;;;;;;;27.00;3.67;;;;;;;;;;5053396;28;20033;-78
2024/03/18 07:07:46;;;;;;;29.50;4.00;;;;;;;;;;5053184;28;20047;-78
2024/03/18 07:10:12;;;;;;;23.23;3.50;;;;;;;;;;5052896;28;20488;-78
2024/03/18 07:12:38;;;;;;;29.42;3.58;;;;;;;;;;5053258;28;20045;-78
2024/03/18 07:15:06;;;;;;;27.63;3.90;;;;;;;;;;5053077;28;20095;-78
2024/03/18 07:17:37;;;;;;;30.35;3.17;;;;;;;;;;5036049;28;20048;-77
2024/03/18 07:20:07;;;;;;;27.27;3.60;;;;;;;;;;5052930;28;20499;-78
2024/03/18 07:22:33;;;;;;;26.25;2.92;;;;;;;;;;5052808;28;20051;-78
2024/03/18 07:24:59;;;;;;;19.98;3.08;;;;;;;;;;5036687;28;20047;-78
2024/03/18 07:27:26;;;;;;;25.70;3.35;;;;;;;;;;5052521;28;20086;-78
2024/03/18 07:30:00;;;;;;;15.88;3.15;;;;;;;;;;5052931;28;20052;-77
2024/03/18 07:32:26;;;;;;;17.05;2.72;;;;;;;;;;5052365;28;20082;-80
2024/03/18 07:34:52;;;;;;;15.77;2.40;;;;;;;;;;5032787;28;20037;-79
2024/03/18 07:37:19;;;;;;;16.63;2.65;;;;;;;;;;5049766;28;20037;-79
2024/03/18 07:39:45;;;;;;;21.73;2.70;;;;;;;;;;5050723;28;20041;-78
2024/03/18 07:42:12;;;;;;;12.73;2.80;;;;;;;;;;5034357;28;20037;-78
2024/03/18 07:44:38;;;;;;;13.75;2.60;;;;;;;;;;5050859;28;20090;-78
2024/03/18 07:47:04;;;;;;;13.43;2.33;;;;;;;;;;5050735;28;20049;-77
2024/03/18 07:49:30;;;;;;;14.27;2.25;;;;;;;;;;5048773;28;20056;-78
2024/03/18 07:51:56;;;;;;;14.65;2.38;;;;;;;;;;5040398;28;20071;-78
2024/03/18 07:54:22;;;;;;;15.55;2.10;;;;;;;;;;5050413;28;20045;-78
2024/03/18 07:56:48;;;;;;;15.23;2.63;;;;;;;;;;5051126;28;20041;-78
2024/03/18 07:59:14;;;;;;;15.63;2.67;;;;;;;;;;5050630;28;20051;-78
2024/03/18 08:01:40;;;;;;;11.90;1.73;;;;;;;;;;5050886;28;20044;-78
2024/03/18 08:04:06;;;;;;;15.07;2.38;;;;;;;;;;5050329;28;20036;-78
2024/03/18 08:06:31;;;;;;;14.20;2.65;;;;;;;;;;5034047;28;20399;-78
2024/03/18 08:08:57;;;;;;;17.05;2.20;;;;;;;;;;5050604;28;20048;-79
2024/03/18 08:11:23;;;;;;;9.10;1.65;;;;;;;;;;5050167;28;20109;-78
2024/03/18 08:13:49;;;;;;;15.43;2.28;;;;;;;;;;5050887;28;20052;-79
2024/03/18 08:16:14;;;;;;;9.77;2.33;;;;;;;;;;5050465;28;20049;-78
2024/03/18 08:18:40;;;;;;;9.10;1.73;;;;;;;;;;5050601;28;20045;-78
2024/03/18 08:21:06;;;;;;;10.98;1.88;;;;;;;;;;5049936;28;20041;-78
2024/03/18 08:23:31;;;;;;;10.88;1.90;;;;;;;;;;5050600;28;20085;-78
2024/03/18 08:25:57;;;;;;;13.68;2.45;;;;;;;;;;5050083;28;20041;-78
2024/03/18 08:28:23;;;;;;;13.27;1.95;;;;;;;;;;5049892;28;20097;-79
2024/03/18 08:30:49;;;;;;;13.55;2.05;;;;;;;;;;5048862;28;20116;-78
2024/03/18 08:33:14;;;;;;;11.05;1.90;;;;;;;;;;5048652;28;20376;-78
2024/03/18 08:35:40;;;;;;;15.27;2.13;;;;;;;;;;5046180;28;20480;-78
2024/03/18 08:38:06;;;;;;;14.00;1.90;;;;;;;;;;5054349;28;20479;-78
2024/03/18 08:40:32;;;;;;;12.77;2.03;;;;;;;;;;5057601;28;20133;-78
2024/03/18 08:42:58;;;;;;;14.32;2.25;;;;;;;;;;5052090;28;20041;-78
2024/03/18 08:45:23;;;;;;;17.73;2.67;;;;;;;;;;5049770;28;20045;-75
2024/03/18 08:47:49;;;;;;;21.65;3.47;;;;;;;;;;5050198;28;20060;-76
2024/03/18 08:50:15;;;;;;;17.92;2.50;;;;;;;;;;5049239;28;20037;-75
2024/03/18 08:52:41;;;;;;;14.55;2.38;;;;;;;;;;5057474;28;20049;-74
2024/03/18 08:55:07;;;;;;;15.07;2.72;;;;;;;;;;5044286;28;20048;-78
2024/03/18 08:57:33;;;;;;;19.00;2.92;;;;;;;;;;5050046;28;20479;-78
2024/03/18 09:00:00;;;;;;;21.42;2.90;;;;;;;;;;5050022;28;20044;-78
2024/03/18 09:02:27;;;;;;;21.77;3.30;;;;;;;;;;5032952;28;20045;-78
2024/03/18 09:04:53;;;;;;;17.65;3.42;;;;;;;;;;5049932;28;20476;-78
2024/03/18 09:07:18;;;;;;;18.73;3.28;;;;;;;;;;5032953;28;20079;-78
2024/03/18 09:09:44;;;;;;;22.33;2.53;;;;;;;;;;5054093;28;20095;-76
2024/03/18 09:12:10;;;;;;;18.35;2.72;;;;;;;;;;5049429;28;20045;-75
2024/03/18 09:14:36;;;;;;;22.45;2.88;;;;;;;;;;5049798;28;20073;-76
2024/03/18 09:17:02;;;;;;;21.73;3.10;;;;;;;;;;5050006;28;20111;-76
2024/03/18 09:19:39;;;;;;;24.48;2.97;;;;;;;;;;5048942;28;20392;-75
2024/03/18 09:22:06;;;;;;;13.45;3.10;;;;;;;;;;5049460;28;20407;-76
2024/03/18 09:24:35;;;;;;;18.73;2.63;;;;;;;;;;5049534;28;20052;-75
2024/03/18 09:27:05;;;;;;;21.80;2.75;;;;;;;;;;5042406;28;20496;-75
2024/03/18 09:29:31;;;;;;;23.17;2.30;;;;;;;;;;5052190;28;20114;-75
2024/03/18 09:31:57;;;;;;;19.67;2.40;;;;;;;;;;5049783;28;20041;-75
2024/03/18 09:34:23;;;;;;;18.13;3.15;;;;;;;;;;5048919;28;20041;-75
2024/03/18 09:36:48;;;;;;;15.00;2.60;;;;;;;;;;5048782;28;20127;-75
2024/03/18 09:39:14;;;;;;;16.45;2.35;;;;;;;;;;5049438;28;20045;-77
2024/03/18 09:41:43;;;;;;;12.48;1.80;;;;;;;;;;5053070;28;20048;-78
2024/03/18 09:44:13;;;;;;;11.00;1.92;;;;;;;;;;5053757;28;20044;-75
2024/03/18 09:46:39;;;;;;;12.15;1.88;;;;;;;;;;5033551;28;20042;-78
2024/03/18 09:49:20;;;;;;;8.18;1.65;;;;;;;;;;5051214;28;20071;-74
2024/03/18 09:51:47;;;;;;;11.20;2.17;;;;;;;;;;5053114;28;20047;-75
2024/03/18 09:54:17;;;;;;;8.57;1.33;;;;;;;;;;5050266;28;20041;-76
2024/03/18 09:57:03;;;;;;;8.52;1.50;;;;;;;;;;5049206;28;20090;-76
2024/03/18 09:59:29;;;;;;;8.05;1.20;;;;;;;;;;5052765;28;20472;-77
2024/03/18 10:01:54;;;;;;;7.38;1.48;;;;;;;;;;5052859;28;20128;-76
2024/03/18 10:04:21;;;;;;;10.73;2.03;;;;;;;;;;5052421;28;20044;-77
2024/03/18 10:06:47;;;;;;;11.43;1.67;;;;;;;;;;5052924;28;20048;-76
2024/03/18 10:09:15;;;;;;;11.18;1.58;;;;;;;;;;5052477;28;20345;-76
2024/03/18 10:11:44;;;;;;;11.95;1.52;;;;;;;;;;5052635;28;20041;-77
2024/03/18 10:14:11;;;;;;;8.77;1.70;;;;;;;;;;5052589;28;20041;-76
2024/03/18 10:16:38;;;;;;;13.15;1.80;;;;;;;;;;5036182;28;20041;-77
2024/03/18 10:19:06;;;;;;;9.90;1.42;;;;;;;;;;5052311;28;20037;-76
2024/03/18 10:21:35;;;;;;;6.65;1.40;;;;;;;;;;5052577;28;20044;-76
2024/03/18 10:24:00;;;;;;;9.05;1.40;;;;;;;;;;5052903;28;20051;-77
2024/03/18 10:26:26;;;;;;;10.00;1.65;;;;;;;;;;5056902;28;20036;-76
2024/03/18 10:28:52;;;;;;;10.98;1.55;;;;;;;;;;5060092;28;20132;-76
2024/03/18 10:31:18;;;;;;;8.13;1.40;;;;;;;;;;5035661;28;20448;-77
2024/03/18 10:33:46;;;;;;;9.07;1.92;;;;;;;;;;5052566;28;20071;-76
2024/03/18 10:36:28;;;;;;;12.00;1.80;;;;;;;;;;5051926;28;20087;-76
2024/03/18 10:39:08;;;;;;;12.02;1.40;;;;;;;;;;5052342;28;20041;-76
2024/03/18 10:41:37;;;;;;;10.95;1.35;;;;;;;;;;5052198;28;20063;-76
2024/03/18 10:44:20;;;;;;;9.27;1.60;;;;;;;;;;5052231;28;20095;-76
2024/03/18 10:46:47;;;;;;;8.88;1.58;;;;;;;;;;5052046;28;20047;-78
2024/03/18 10:49:17;;;;;;;11.90;1.60;;;;;;;;;;5056588;28;20044;-77
2024/03/18 10:51:45;;;;;;;9.63;1.63;;;;;;;;;;5058455;28;20048;-76
2024/03/18 10:54:16;;;;;;;10.13;1.42;;;;;;;;;;5038673;28;20037;-76
2024/03/18 10:56:48;;;;;;;10.52;1.65;;;;;;;;;;5052089;28;20037;-76
2024/03/18 10:59:16;;;;;;;9.30;1.40;;;;;;;;;;5051546;28;20523;-76
2024/03/18 11:01:42;;;;;;;8.38;1.60;;;;;;;;;;5051433;28;20059;-77
2024/03/18 11:04:18;;;;;;;10.02;1.73;;;;;;;;;;5051547;28;20041;-77
2024/03/18 11:06:50;;;;;;;10.85;1.52;;;;;;;;;;5051897;28;20048;-76
2024/03/18 11:09:17;;;;;;;16.67;1.92;;;;;;;;;;5051468;28;20037;-76
2024/03/18 11:11:44;;;;;;;11.10;2.20;;;;;;;;;;5051594;28;20045;-76
2024/03/18 11:14:13;;;;;;;10.95;1.85;;;;;;;;;;5051367;28;20276;-76
2024/03/18 11:16:45;;;;;;;11.25;1.90;;;;;;;;;;5051679;28;20045;-75
2024/03/18 11:19:18;;;;;;;17.45;2.15;;;;;;;;;;5050919;28;20039;-76
2024/03/18 11:21:44;;;;;;;13.85;1.63;;;;;;;;;;5051260;28;20040;-76
2024/03/18 11:24:22;;;;;;;12.52;1.80;;;;;;;;;;5051122;28;20049;-76
2024/03/18 11:26:56;;;;;;;13.52;1.55;;;;;;;;;;5051545;28;20051;-76
2024/03/18 11:29:35;;;;;;;6.13;1.23;;;;;;;;;;5050380;28;20051;-78
2024/03/18 11:32:01;;;;;;;8.75;1.35;;;;;;;;;;5051357;28;20037;-76
2024/03/18 11:34:27;;;;;;;7.85;1.35;;;;;;;;;;5050711;28;20468;-76
2024/03/18 11:36:54;;;;;;;6.95;1.27;;;;;;;;;;5051270;28;20055;-76
2024/03/18 11:39:22;;;;;;;12.02;1.60;;;;;;;;;;5050302;28;20049;-77
2024/03/18 11:41:58;;;;;;;11.02;1.23;;;;;;;;;;5040354;28;20041;-76
2024/03/18 11:44:24;;;;;;;13.82;1.60;;;;;;;;;;5048831;28;20064;-77
2024/03/18 11:47:03;;;;;;;6.88;1.20;;;;;;;;;;5050887;28;20040;-76
2024/03/18 11:49:29;;;;;;;12.07;1.27;;;;;;;;;;5050139;28;20456;-76
2024/03/18 11:51:57;;;;;;;4.88;1.00;;;;;;;;;;5050245;28;20041;-77
2024/03/18 11:54:23;;;;;;;8.82;1.10;;;;;;;;;;5055769;28;20049;-76
2024/03/18 11:56:49;;;;;;;14.20;1.90;;;;;;;;;;5051102;28;20041;-76
2024/03/18 11:59:15;;;;;;;11.15;1.60;;;;;;;;;;5033853;28;20078;-76
2024/03/18 12:01:41;;;;;;;12.18;1.73;;;;;;;;;;5034278;28;20051;-77
2024/03/18 12:04:07;;;;;;;10.65;1.80;;;;;;;;;;5049515;28;20037;-77
2024/03/18 12:06:38;;;;;;;9.90;1.70;;;;;;;;;;5050390;28;20041;-76
2024/03/18 12:09:05;;;;;;;11.50;1.60;;;;;;;;;;5050799;28;20041;-76
2024/03/18 12:11:35;;;;;;;9.18;1.65;;;;;;;;;;5049937;28;20041;-76
2024/03/18 12:14:01;;;;;;;8.70;1.65;;;;;;;;;;5050789;28;20041;-76
2024/03/18 12:16:26;;;;;;;4.95;1.00;;;;;;;;;;5049996;28;20399;-76
2024/03/18 12:18:52;;;;;;;8.25;1.33;;;;;;;;;;5050238;28;20041;-76
2024/03/18 12:21:18;;;;;;;7.72;1.20;;;;;;;;;;5049700;28;20052;-76
2024/03/18 12:29:22;;;;;;;8.63;1.70;;;;;;;;;;5049453;28;20384;-76
2024/03/18 12:31:48;;;;;;;10.98;1.20;;;;;;;;;;5050339;28;20127;-76
2024/03/18 12:34:15;;;;;;;6.82;1.33;;;;;;;;;;5049514;28;20088;-76
2024/03/18 12:36:44;;;;;;;8.57;1.52;;;;;;;;;;5050290;28;20053;-76
2024/03/18 12:39:12;;;;;;;5.38;1.08;;;;;;;;;;5049634;28;20037;-77
2024/03/18 12:41:40;;;;;;;5.10;1.05;;;;;;;;;;5049980;28;20041;-76
2024/03/18 12:44:08;;;;;;;5.38;1.42;;;;;;;;;;5049960;28;20052;-76
2024/03/18 12:46:33;;;;;;;8.13;1.13;;;;;;;;;;5050162;28;20037;-75
2024/03/18 12:49:02;;;;;;;7.78;1.20;;;;;;;;;;5049985;28;20644;-76
2024/03/18 12:51:31;;;;;;;11.68;1.08;;;;;;;;;;5049756;28;20037;-76
2024/03/18 12:53:56;;;;;;;;;;;;;;;;;;5034474;28;20045;-76
2024/03/18 12:56:22;;;;;;;6.80;1.17;;;;;;;;;;5049708;28;20322;-76
2024/03/18 12:58:49;;;;;;;5.35;1.30;;;;;;;;;;5050006;28;20045;-76
2024/03/18 13:01:15;;;;;;;5.30;1.33;;;;;;;;;;5048745;28;20045;-76
2024/03/18 13:03:40;;;;;;;7.10;1.10;;;;;;;;;;5049835;28;20499;-76
2024/03/18 13:06:07;;;;;;;11.77;1.40;;;;;;;;;;5049965;28;20037;-76
2024/03/18 13:08:33;;;;;;;9.73;1.70;;;;;;;;;;5051676;28;20045;-76
2024/03/18 13:11:00;;;;;;;9.45;1.63;;;;;;;;;;5051483;28;20128;-76
2024/03/18 13:13:26;;;;;;;10.27;1.70;;;;;;;;;;5051016;28;20063;-76
2024/03/18 13:15:54;;;;;;;11.35;2.00;;;;;;;;;;5052729;28;20395;-76
2024/03/18 13:18:22;;;;;;;11.63;1.40;;;;;;;;;;5057893;28;20053;-77
2024/03/18 13:20:48;;;;;;;10.13;1.95;;;;;;;;;;5058413;28;20093;-76
2024/03/18 13:23:15;;;;;;;11.93;1.80;;;;;;;;;;5058303;28;20039;-76
2024/03/18 13:25:41;;;;;;;11.23;1.65;;;;;;;;;;5058421;28;20036;-76
2024/03/18 13:28:08;;;;;;;15.10;1.35;;;;;;;;;;5041607;28;20036;-76
2024/03/18 13:30:35;;;;;;;9.63;1.92;;;;;;;;;;5058529;28;20040;-76
2024/03/18 13:33:02;;;;;;;10.93;1.63;;;;;;;;;;5058498;28;20047;-75
2024/03/18 13:35:27;;;;;;;9.98;1.75;;;;;;;;;;5057994;28;20044;-76
2024/03/18 13:37:53;;;;;;;10.50;2.00;;;;;;;;;;5057961;28;20143;-76
2024/03/18 13:40:19;;;;;;;14.38;2.20;;;;;;;;;;5058088;28;20051;-76
2024/03/18 13:42:50;;;;;;;10.05;2.00;;;;;;;;;;5056983;28;20038;-76
2024/03/18 13:45:16;;;;;;;12.00;2.13;;;;;;;;;;5056381;28;20037;-77
2024/03/18 13:47:42;;;;;;;13.45;2.03;;;;;;;;;;5056552;28;20106;-76
2024/03/18 13:50:08;;;;;;;12.32;2.03;;;;;;;;;;5069037;28;20054;-76
2024/03/18 13:52:34;;;;;;;10.38;1.63;;;;;;;;;;5078225;28;20496;-76
2024/03/18 13:55:03;;;;;;;8.20;1.77;;;;;;;;;;5078200;28;20067;-76
2024/03/18 13:57:33;;;;;;;15.07;2.47;;;;;;;;;;5077511;28;20044;-77
2024/03/18 14:00:03;;;;;;;12.43;2.13;;;;;;;;;;5073616;28;20040;-76
2024/03/18 14:02:30;;;;;;;15.18;2.60;;;;;;;;;;5071331;28;20028;-76
2024/03/18 14:04:55;;;;;;;11.05;2.10;;;;;;;;;;5071498;28;20327;-76
2024/03/18 14:07:21;;;;;;;15.25;2.22;;;;;;;;;;5071548;28;20324;-76
2024/03/18 14:09:47;;;;;;;16.33;2.45;;;;;;;;;;5054504;28;20546;-76
2024/03/18 14:12:20;;;;;;;12.85;2.28;;;;;;;;;;5054287;28;20052;-76
2024/03/18 14:14:47;;;;;;;16.35;2.70;;;;;;;;;;5070853;28;20035;-76
2024/03/18 14:17:14;;;;;;;16.05;2.17;;;;;;;;;;5071492;28;20052;-76
2024/03/18 14:19:40;;;;;;;10.80;2.40;;;;;;;;;;5073841;28;20044;-76
2024/03/18 14:22:07;;;;;;;12.57;2.00;;;;;;;;;;5055308;28;20151;-75
2024/03/18 14:24:33;;;;;;;16.58;2.30;;;;;;;;;;5054868;28;20044;-76
2024/03/18 14:26:59;;;;;;;15.13;2.58;;;;;;;;;;5053688;28;20041;-76
2024/03/18 14:29:25;;;;;;;15.75;2.17;;;;;;;;;;5054059;28;20459;-76
2024/03/18 14:31:51;;;;;;;14.02;2.60;;;;;;;;;;5067002;28;20043;-76
2024/03/18 14:34:17;;;;;;;15.65;2.20;;;;;;;;;;5072590;28;20105;-76
2024/03/18 14:36:44;;;;;;;15.30;2.05;;;;;;;;;;5057422;28;20479;-76
2024/03/18 14:39:14;;;;;;;14.88;2.38;;;;;;;;;;5056776;28;20051;-76
2024/03/18 14:41:40;;;;;;;12.52;2.15;;;;;;;;;;5057281;28;20463;-76